Time;durP1;ratioP1;P1;durP2;ratioP2;P2;SDS_P1;SDS_P2;PMS_P1;PMS_P2;Temp;Humidity;BMP_temperature;BMP_pressure;BME280_temperature;BME280_humidity;BME280_pressure;Samples;Min_cycle;Max_cycle;Signal;HPM_P1;HPM_P2
2023/02/20 00:00:22;;;;;;;200.77;183.20;;;;;;;4.02;78.17;102174.66;4921286;29;20039;-73
2023/02/20 00:02:48;;;;;;;217.02;200.63;;;;;;;4.06;77.95;102172.44;4920415;29;20036;-73
2023/02/20 00:05:14;;;;;;;219.55;202.65;;;;;;;4.06;78.07;102164.47;4922502;28;20042;-74
2023/02/20 00:07:40;;;;;;;219.32;202.18;;;;;;;4.06;78.10;102153.88;4923631;29;20027;-73
2023/02/20 00:10:06;;;;;;;211.63;193.95;;;;;;;4.09;78.06;102154.31;4922113;29;20074;-73
2023/02/20 00:12:32;;;;;;;202.50;185.00;;;;;;;4.10;77.66;102137.41;4925035;29;20658;-73
2023/02/20 00:14:58;;;;;;;206.55;189.10;;;;;;;4.04;78.76;102138.16;4909273;29;20044;-73
2023/02/20 00:17:23;;;;;;;220.85;203.63;;;;;;;4.05;78.74;102131.84;4906149;29;20031;-73
2023/02/20 00:19:49;;;;;;;219.40;202.88;;;;;;;4.05;78.57;102121.25;4922379;29;20056;-73
2023/02/20 00:22:14;;;;;;;228.88;210.95;;;;;;;4.20;78.08;102109.72;4927524;28;20119;-73
2023/02/20 00:24:40;;;;;;;218.60;201.88;;;;;;;4.13;78.63;102111.50;4918267;29;20032;-73
2023/02/20 00:27:06;;;;;;;220.02;202.88;;;;;;;4.14;78.62;102113.16;4924177;29;20035;-73
2023/02/20 00:29:32;;;;;;;207.90;190.50;;;;;;;4.05;78.91;102089.44;4923546;29;20096;-73
2023/02/20 00:31:58;;;;;;;222.10;205.07;;;;;;;4.08;78.62;102086.41;4939838;28;20536;-73
2023/02/20 00:34:27;;;;;;;217.30;200.93;;;;;;;4.17;78.34;102086.25;4926448;29;20038;-74
2023/02/20 00:36:52;;;;;;;199.75;182.98;;;;;;;4.18;78.83;102077.28;4924583;29;20111;-74
2023/02/20 00:39:19;;;;;;;204.50;187.25;;;;;;;4.18;78.62;102066.66;4927721;29;20135;-73
2023/02/20 00:41:45;;;;;;;210.85;193.10;;;;;;;4.08;78.84;102044.00;4925079;29;20044;-73
2023/02/20 00:44:11;;;;;;;207.80;190.68;;;;;;;4.18;78.79;102045.47;4925324;29;20027;-74
2023/02/20 00:46:36;;;;;;;220.80;203.75;;;;;;;4.21;78.50;102045.09;4941214;28;20047;-72
2023/02/20 00:49:02;;;;;;;200.80;184.07;;;;;;;4.22;78.50;102042.22;4923941;29;20031;-71
2023/02/20 00:51:46;;;;;;;202.07;185.27;;;;;;;4.13;78.88;102032.78;4924781;29;20024;-73
2023/02/20 00:54:13;;;;;;;205.38;187.85;;;;;;;4.15;79.46;102030.78;4926846;29;20038;-73
2023/02/20 00:56:38;;;;;;;204.35;187.20;;;;;;;4.26;78.44;102011.63;4929455;29;20073;-72
2023/02/20 00:59:04;;;;;;;217.68;201.05;;;;;;;4.28;78.62;102008.81;4927118;29;20035;-73
2023/02/20 01:01:29;;;;;;;219.73;202.13;;;;;;;4.30;78.41;102002.28;4914734;29;20050;-73
2023/02/20 01:03:55;;;;;;;225.88;209.07;;;;;;;4.31;77.81;101997.78;4931574;29;20043;-73
2023/02/20 01:06:20;;;;;;;208.57;191.07;;;;;;;4.33;77.85;102006.38;4948245;29;20890;-73
2023/02/20 01:08:46;;;;;;;218.95;202.05;;;;;;;4.28;78.19;102009.63;4931554;29;20054;-73
2023/02/20 01:11:12;;;;;;;226.43;208.77;;;;;;;4.36;77.55;102008.63;4947980;28;20413;-73
2023/02/20 01:13:37;;;;;;;210.90;193.68;;;;;;;4.36;78.15;102013.94;4931213;29;20107;-73
2023/02/20 01:16:06;;;;;;;213.07;195.40;;;;;;;4.37;77.74;102002.31;4930335;29;20039;-73
2023/02/20 01:18:32;;;;;;;221.27;204.45;;;;;;;4.39;77.84;101995.78;4929832;29;20481;-73
2023/02/20 01:20:57;;;;;;;221.32;203.50;;;;;;;4.38;77.65;101993.34;4929698;29;20043;-73
2023/02/20 01:23:23;;;;;;;205.55;188.50;;;;;;;4.40;77.76;101999.25;4945796;28;20043;-73
2023/02/20 01:25:51;;;;;;;213.60;197.10;;;;;;;4.39;77.83;102003.75;4910815;29;20122;-73
2023/02/20 01:28:17;;;;;;;214.98;198.15;;;;;;;4.43;77.82;101990.09;4945031;28;20573;-72
2023/02/20 01:30:43;;;;;;;210.02;193.48;;;;;;;4.48;77.39;101977.06;4941384;28;20123;-72
2023/02/20 01:33:09;;;;;;;208.27;191.65;;;;;;;4.50;77.60;101972.38;4927350;29;20044;-73
2023/02/20 01:35:35;;;;;;;203.95;187.38;;;;;;;4.51;77.42;101976.66;4945058;28;20114;-74
2023/02/20 01:38:05;;;;;;;206.32;189.35;;;;;;;4.49;78.20;101984.00;4929617;29;20408;-73
2023/02/20 01:40:32;;;;;;;192.32;175.95;;;;;;;4.50;78.54;101975.84;4925808;29;20036;-73
2023/02/20 01:43:01;;;;;;;207.63;190.68;;;;;;;4.51;78.06;101977.47;4928914;29;20500;-73
2023/02/20 01:45:33;;;;;;;214.85;198.73;;;;;;;4.50;77.94;101965.22;4930695;29;20466;-72
2023/02/20 01:47:59;;;;;;;212.93;197.10;;;;;;;4.60;77.20;101955.03;4945538;28;20125;-73
2023/02/20 01:50:32;;;;;;;215.13;198.38;;;;;;;4.61;77.46;101954.06;4917163;29;20485;-73
2023/02/20 01:53:04;;;;;;;202.45;185.57;;;;;;;4.70;77.57;101969.78;4944164;29;20059;-72
2023/02/20 01:55:41;;;;;;;127.82;114.63;;;;;;;4.64;77.14;101945.66;4944025;28;20039;-73
2023/02/20 01:58:16;;;;;;;215.20;199.23;;;;;;;4.62;77.66;101936.28;4911806;29;20409;-72
2023/02/20 02:00:42;;;;;;;201.55;185.02;;;;;;;4.66;77.27;101925.06;4911899;29;20051;-73
2023/02/20 02:03:11;;;;;;;201.57;185.15;;;;;;;4.71;77.25;101899.75;4927431;29;20323;-73
2023/02/20 02:05:41;;;;;;;215.45;198.68;;;;;;;4.71;77.37;101911.19;4926824;28;20824;-74
2023/02/20 02:08:09;;;;;;;215.88;199.63;;;;;;;4.69;77.34;101904.47;4942331;28;20036;-73
2023/02/20 02:11:02;;;;;;;198.55;182.02;;;;;;;4.71;77.17;101886.50;4926387;29;20038;-73
2023/02/20 02:13:29;;;;;;;203.73;187.10;;;;;;;4.74;76.73;101873.66;4927274;29;20042;-74
2023/02/20 02:16:37;;;;;;;219.55;202.45;;;;;;;4.77;77.10;101865.28;4926585;29;20334;-73
2023/02/20 02:19:17;;;;;;;208.55;191.30;;;;;;;4.86;76.58;101857.91;4922904;29;20122;-72
2023/02/20 02:22:05;;;;;;;223.80;206.10;;;;;;;4.91;76.65;101863.44;4927202;29;20106;-72
2023/02/20 02:25:08;;;;;;;227.65;210.10;;;;;;;4.92;76.57;101859.75;4924298;29;20038;-72
2023/02/20 02:27:47;;;;;;;227.23;207.88;;;;;;;4.94;76.38;101857.69;4925789;29;20083;-72
2023/02/20 02:30:34;;;;;;;235.30;216.43;;;;;;;4.99;76.74;101859.75;4908782;29;20610;-72
2023/02/20 02:33:03;;;;;;;237.70;218.73;;;;;;;5.00;76.87;101859.53;4926065;29;20496;-71
2023/02/20 02:36:06;;;;;;;226.80;208.90;;;;;;;5.03;76.07;101848.53;4926535;29;20485;-72
2023/02/20 02:38:40;;;;;;;237.90;219.30;;;;;;;5.06;76.23;101861.38;4923439;28;20512;-73
2023/02/20 02:41:19;;;;;;;238.27;219.20;;;;;;;5.05;76.46;101861.59;4927319;29;20073;-73
2023/02/20 02:44:10;;;;;;;282.45;259.35;;;;;;;5.08;76.42;101862.00;4926402;29;20041;-73
2023/02/20 02:46:50;;;;;;;150.03;133.83;;;;;;;5.16;75.79;101864.44;4924091;29;20053;-72
2023/02/20 02:49:24;;;;;;;220.65;203.73;;;;;;;5.19;76.07;101864.03;4910877;29;20771;-72
2023/02/20 02:51:54;;;;;;;207.90;190.85;;;;;;;5.11;77.16;101861.59;4925124;29;20042;-72
2023/02/20 02:54:25;;;;;;;199.60;183.10;;;;;;;5.16;77.13;101863.63;4925486;29;20036;-73
2023/02/20 02:56:52;;;;;;;199.52;183.13;;;;;;;5.08;77.63;101843.41;4927153;29;20031;-73
2023/02/20 02:59:27;;;;;;;239.18;221.07;;;;;;;5.09;77.39;101837.09;4943082;28;20042;-73
2023/02/20 03:01:58;;;;;;;200.63;184.15;;;;;;;5.10;77.16;101824.63;4943746;28;20138;-73
2023/02/20 03:04:27;;;;;;;216.43;200.43;;;;;;;5.11;77.22;101818.28;4927086;29;20055;-73
2023/02/20 03:06:58;;;;;;;220.60;204.20;;;;;;;5.07;77.97;101825.03;4926026;28;20048;-73
2023/02/20 03:09:31;;;;;;;199.77;183.13;;;;;;;5.03;78.34;101821.16;4926344;29;20035;-73
2023/02/20 03:12:00;;;;;;;218.00;201.95;;;;;;;4.94;78.82;101825.84;4925843;29;20063;-74
2023/02/20 03:17:39;;;;;;;219.65;203.23;;;;;;;4.93;79.41;101817.06;4940480;28;20047;-72
2023/02/20 03:20:08;;;;;;;202.15;185.32;;;;;;;4.99;78.85;101815.44;4908767;29;20040;-72
2023/02/20 03:22:41;;;;;;;219.43;202.98;;;;;;;4.95;79.39;101808.91;4922359;29;20621;-72
2023/02/20 03:25:20;;;;;;;205.95;189.10;;;;;;;4.95;79.26;101805.44;4920630;29;20824;-72
2023/02/20 03:28:02;;;;;;;221.07;204.50;;;;;;;4.93;79.86;101800.31;4935457;28;20027;-72
2023/02/20 03:30:35;;;;;;;219.15;202.75;;;;;;;4.92;80.01;101804.00;4925364;29;20496;-74
2023/02/20 03:44:16;;;;;;;204.85;187.65;;;;;;;4.95;79.73;101806.25;4919679;29;20048;-72
2023/02/20 03:46:44;;;;;;;203.27;186.68;;;;;;;4.93;79.44;101802.97;4939719;28;20043;-72
2023/02/20 03:52:03;;;;;;;217.18;201.00;;;;;;;4.76;80.00;101778.72;4906407;29;20474;-72
2023/02/20 03:54:36;;;;;;;204.20;186.98;;;;;;;4.88;79.34;101770.94;4924577;29;20182;-72
2023/02/20 03:57:06;;;;;;;205.52;188.65;;;;;;;4.97;79.04;101780.31;4925094;29;20035;-72
2023/02/20 03:59:41;;;;;;;217.70;201.63;;;;;;;4.94;79.08;101783.38;4909516;29;20050;-73
2023/02/20 04:02:16;;;;;;;217.95;201.75;;;;;;;4.92;79.39;101804.00;4925896;29;20035;-72
2023/02/20 04:04:46;;;;;;;218.82;202.48;;;;;;;4.95;79.15;101810.75;4926504;29;20502;-73
2023/02/20 04:07:23;;;;;;;216.52;200.30;;;;;;;5.01;78.94;101789.47;4926054;29;20090;-74
2023/02/20 04:09:50;;;;;;;221.85;205.15;;;;;;;4.95;79.15;101802.81;4940715;28;20036;-73
2023/02/20 04:12:22;;;;;;;202.05;185.48;;;;;;;4.89;79.50;101791.16;4924851;29;20038;-73
2023/02/20 04:14:50;;;;;;;204.37;187.57;;;;;;;4.80;79.70;101784.41;4919062;29;20143;-73
2023/02/20 04:17:22;;;;;;;201.57;184.98;;;;;;;4.82;79.95;101774.44;4923052;29;20032;-73
2023/02/20 04:19:48;;;;;;;221.32;204.63;;;;;;;4.88;79.44;101761.16;4908208;29;20048;-72
2023/02/20 04:22:20;;;;;;;219.45;203.02;;;;;;;4.88;79.15;101765.66;4939852;29;20050;-72
2023/02/20 04:24:56;;;;;;;219.37;203.03;;;;;;;4.96;79.00;101746.84;4939361;28;20038;-75
2023/02/20 04:27:24;;;;;;;220.30;203.48;;;;;;;4.91;79.48;101746.63;4905108;29;20721;-73
2023/02/20 04:29:54;;;;;;;208.15;190.77;;;;;;;4.95;79.28;101747.06;4924249;29;20128;-72
2023/02/20 04:32:20;;;;;;;221.55;204.48;;;;;;;4.80;79.69;101739.28;4925339;29;20465;-73
2023/02/20 04:34:46;;;;;;;202.77;186.15;;;;;;;4.78;79.98;101742.16;4924114;29;20048;-72
2023/02/20 04:37:15;;;;;;;218.88;202.50;;;;;;;4.75;80.01;101739.13;4941959;29;20039;-73
2023/02/20 04:39:41;;;;;;;221.50;204.93;;;;;;;4.70;80.62;101721.16;4928045;29;20036;-73
2023/02/20 04:42:09;;;;;;;213.80;195.93;;;;;;;4.62;80.83;101730.16;4943098;28;20941;-73
2023/02/20 04:44:35;;;;;;;219.13;200.63;;;;;;;4.75;80.16;101718.72;4933059;29;20032;-72
2023/02/20 04:47:06;;;;;;;231.05;213.02;;;;;;;4.83;80.04;101715.81;4912838;29;20684;-73
2023/02/20 04:49:33;;;;;;;208.18;191.07;;;;;;;4.78;80.44;101705.00;4930931;29;20162;-72
2023/02/20 04:52:01;;;;;;;202.10;185.30;;;;;;;4.76;80.48;101696.44;4929868;29;20599;-73
2023/02/20 04:54:27;;;;;;;218.63;202.50;;;;;;;4.88;80.08;101693.97;4945925;28;20050;-73
2023/02/20 04:56:53;;;;;;;205.30;188.40;;;;;;;4.88;79.91;101691.31;4935674;29;20035;-72
2023/02/20 04:59:20;;;;;;;207.52;190.35;;;;;;;4.98;79.54;101696.19;4933861;29;20506;-74
2023/02/20 05:01:50;;;;;;;221.32;204.73;;;;;;;4.94;79.90;101698.44;4912218;29;20044;-74
2023/02/20 05:04:22;;;;;;;206.68;189.70;;;;;;;5.11;79.02;101686.34;4947200;28;20106;-73
2023/02/20 05:06:51;;;;;;;202.70;186.05;;;;;;;4.98;79.82;101674.94;4946245;28;20040;-73
2023/02/20 05:09:18;;;;;;;219.57;202.35;;;;;;;4.99;79.33;101693.31;4930801;29;20043;-73
2023/02/20 05:11:44;;;;;;;224.45;207.15;;;;;;;5.03;79.54;101707.81;4931612;29;20032;-72
2023/02/20 05:14:10;;;;;;;210.45;193.45;;;;;;;4.99;79.76;101711.91;4930154;29;20098;-72
2023/02/20 05:16:39;;;;;;;220.95;204.45;;;;;;;5.10;79.13;101713.09;4945913;29;20038;-72
2023/02/20 05:19:06;;;;;;;207.40;190.20;;;;;;;5.07;79.54;101700.22;4929744;29;20042;-73
2023/02/20 05:24:18;;;;;;;208.05;191.07;;;;;;;5.23;79.07;101689.16;4927531;29;20387;-72
2023/02/20 05:26:44;;;;;;;218.55;202.05;;;;;;;5.30;78.87;101674.00;4931113;29;20568;-73
2023/02/20 05:29:11;;;;;;;219.50;202.98;;;;;;;5.39;78.18;101656.78;4932020;29;20043;-72
2023/02/20 05:31:40;;;;;;;215.30;198.98;;;;;;;5.43;77.89;101650.03;4945152;28;20039;-73
2023/02/20 05:34:06;;;;;;;234.32;214.55;;;;;;;5.39;78.30;101655.97;4927556;29;20091;-74
2023/02/20 05:36:32;;;;;;;204.15;187.35;;;;;;;5.32;78.84;101660.50;4930295;29;20457;-73
2023/02/20 05:38:58;;;;;;;216.15;200.25;;;;;;;5.31;79.00;101649.06;4936367;29;20063;-72
2023/02/20 05:41:24;;;;;;;203.77;187.18;;;;;;;5.43;78.13;101646.56;4927634;29;20032;-73
2023/02/20 05:43:49;;;;;;;216.68;200.77;;;;;;;5.36;78.96;101632.50;4929402;29;20532;-70
2023/02/20 05:46:15;;;;;;;224.88;207.57;;;;;;;5.37;78.80;101626.97;4929059;29;20040;-73
2023/02/20 05:48:41;;;;;;;199.20;183.48;;;;;;;5.39;78.52;101610.81;4929896;29;20047;-71
2023/02/20 05:51:07;;;;;;;207.48;192.18;;;;;;;5.40;78.63;101631.03;4929614;29;20119;-72
2023/02/20 05:53:32;;;;;;;218.43;202.20;;;;;;;5.36;79.00;101608.59;4945454;28;20518;-72
2023/02/20 05:55:58;;;;;;;222.27;205.63;;;;;;;5.40;78.65;101615.09;4928114;29;20058;-73
2023/02/20 05:58:24;;;;;;;248.75;227.70;;;;;;;5.40;79.14;101607.13;4930476;29;20509;-72
2023/02/20 06:00:50;;;;;;;226.23;209.00;;;;;;;5.37;79.29;101599.59;4919349;29;20031;-73
2023/02/20 06:03:16;;;;;;;203.23;186.57;;;;;;;5.45;78.74;101602.00;4948161;29;20090;-72
2023/02/20 06:05:42;;;;;;;202.80;186.27;;;;;;;5.48;78.96;101610.31;4935415;28;20056;-74
2023/02/20 06:08:08;;;;;;;220.88;204.43;;;;;;;5.49;78.66;101603.19;4932366;29;20063;-74
2023/02/20 06:10:35;;;;;;;220.98;204.20;;;;;;;5.46;79.07;101595.63;4919231;29;20119;-74
2023/02/20 06:13:01;;;;;;;232.63;214.20;;;;;;;5.48;79.03;101590.91;4918566;29;20440;-73
2023/02/20 06:15:27;;;;;;;228.95;211.20;;;;;;;5.45;79.14;101575.41;4948956;28;20038;-74
2023/02/20 06:17:53;;;;;;;247.43;226.63;;;;;;;5.40;79.31;101572.59;4917856;29;20036;-73
2023/02/20 06:20:19;;;;;;;224.52;206.95;;;;;;;5.36;79.67;101563.44;4934630;28;20031;-72
2023/02/20 06:22:48;;;;;;;233.90;213.07;;;;;;;5.38;79.51;101562.19;4929972;29;20036;-72
2023/02/20 06:25:14;;;;;;;223.82;204.18;;;;;;;5.32;80.10;101570.19;4947253;28;20040;-72
2023/02/20 06:27:40;;;;;;;250.93;228.65;;;;;;;5.36;79.42;101582.03;4916465;29;20034;-72
2023/02/20 06:30:06;;;;;;;235.68;217.30;;;;;;;5.43;79.29;101578.31;4945642;28;20122;-71
2023/02/20 06:32:31;;;;;;;264.05;242.02;;;;;;;5.36;79.49;101582.03;4931905;29;20042;-72
2023/02/20 06:34:57;;;;;;;226.30;208.65;;;;;;;5.51;79.03;101563.13;4930539;29;20576;-72
2023/02/20 06:37:23;;;;;;;219.23;199.77;;;;;;;5.38;79.72;101588.75;4944697;29;20125;-72
2023/02/20 06:39:48;;;;;;;192.02;176.32;;;;;;;5.35;79.93;101583.03;4929339;28;20178;-73
2023/02/20 06:42:15;;;;;;;226.13;208.73;;;;;;;5.45;79.39;101596.69;4943481;28;20401;-72
2023/02/20 06:44:40;;;;;;;258.08;236.32;;;;;;;5.59;79.35;101590.25;4932649;29;20040;-73
2023/02/20 06:47:07;;;;;;;218.98;199.20;;;;;;;5.70;78.62;101586.91;4944365;28;20068;-73
2023/02/20 06:49:36;;;;;;;239.75;220.45;;;;;;;5.72;78.56;101579.50;4931155;29;20118;-74
2023/02/20 06:52:03;;;;;;;298.63;268.92;;;;;;;5.77;78.78;101594.81;4930992;29;20039;-72
2023/02/20 06:54:28;;;;;;;214.68;195.15;;;;;;;5.84;78.20;101595.56;4919159;29;20110;-73
2023/02/20 06:56:55;;;;;;;381.08;298.17;;;;;;;5.81;78.60;101581.88;4929148;29;20035;-74
2023/02/20 06:59:22;;;;;;;220.75;203.80;;;;;;;5.84;78.75;101598.22;4945631;28;20118;-72
2023/02/20 07:01:48;;;;;;;209.55;191.88;;;;;;;5.91;78.41;101587.56;4933772;29;20918;-74
2023/02/20 07:04:17;;;;;;;209.48;192.05;;;;;;;5.89;79.02;101581.63;4945893;28;20044;-73
2023/02/20 07:06:43;;;;;;;208.75;191.13;;;;;;;5.98;78.20;101585.66;4929231;29;20047;-73
2023/02/20 07:09:09;;;;;;;225.90;208.60;;;;;;;5.97;78.46;101586.72;4927966;29;20098;-75
2023/02/20 07:11:35;;;;;;;209.55;191.48;;;;;;;5.98;78.50;101575.03;4930237;29;20035;-74
2023/02/20 07:14:00;;;;;;;224.40;207.15;;;;;;;6.01;78.49;101579.91;4912414;29;20035;-74
2023/02/20 07:16:26;;;;;;;210.23;192.50;;;;;;;6.04;78.37;101584.00;4914134;29;20453;-74
2023/02/20 07:18:52;;;;;;;226.88;208.88;;;;;;;6.09;78.37;101579.63;4929030;29;20031;-73
2023/02/20 07:21:17;;;;;;;224.93;207.77;;;;;;;6.11;78.42;101582.91;4931453;29;20047;-72
2023/02/20 07:23:44;;;;;;;211.98;193.93;;;;;;;6.11;78.58;101595.38;4932550;29;20027;-73
2023/02/20 07:26:20;;;;;;;211.40;193.75;;;;;;;6.10;78.78;101591.91;4929350;29;20497;-73
2023/02/20 07:28:47;;;;;;;209.40;191.85;;;;;;;6.14;78.82;101589.59;4927699;29;20050;-72
2023/02/20 07:31:12;;;;;;;229.65;211.07;;;;;;;6.15;79.11;101591.22;4944019;29;20066;-72
2023/02/20 07:33:38;;;;;;;227.00;209.48;;;;;;;6.14;78.82;101585.09;4928166;29;20062;-73
2023/02/20 07:36:04;;;;;;;227.73;210.00;;;;;;;6.14;78.99;101574.47;4943840;28;20410;-73
2023/02/20 07:38:30;;;;;;;236.10;218.13;;;;;;;6.17;79.32;101584.69;4926160;29;20055;-73
2023/02/20 07:40:56;;;;;;;229.35;211.23;;;;;;;6.16;79.25;101580.38;4927740;29;20039;-74
2023/02/20 07:43:21;;;;;;;227.85;210.23;;;;;;;6.17;79.17;101573.22;4912715;29;20113;-74
2023/02/20 07:45:49;;;;;;;213.95;195.98;;;;;;;6.17;79.16;101584.69;4912129;29;20512;-73
2023/02/20 07:48:15;;;;;;;227.65;210.32;;;;;;;6.17;79.44;101568.72;4928550;29;20035;-74
2023/02/20 07:50:41;;;;;;;228.80;211.18;;;;;;;6.17;79.70;101567.91;4948498;28;20051;-74
2023/02/20 07:53:07;;;;;;;213.75;195.90;;;;;;;6.14;79.87;101560.34;4912581;29;20035;-74
2023/02/20 07:55:32;;;;;;;215.85;197.38;;;;;;;6.18;80.11;101558.88;4945153;28;20151;-74
2023/02/20 07:57:58;;;;;;;245.05;224.13;;;;;;;6.16;80.00;101553.78;4914084;29;20586;-74
2023/02/20 08:00:25;;;;;;;230.40;212.30;;;;;;;6.14;80.30;101563.81;4929321;29;20499;-72
2023/02/20 08:02:51;;;;;;;230.65;213.05;;;;;;;6.17;80.13;101547.44;4925887;29;20215;-74
2023/02/20 08:05:17;;;;;;;230.30;211.95;;;;;;;6.19;80.56;101540.03;4910945;29;20389;-75
2023/02/20 08:07:47;;;;;;;217.15;198.27;;;;;;;6.20;80.88;101541.66;4942983;28;20035;-73
2023/02/20 08:10:15;;;;;;;219.38;200.77;;;;;;;6.17;80.81;101534.16;4912276;29;20051;-73
2023/02/20 08:12:41;;;;;;;230.65;212.52;;;;;;;6.22;80.63;101531.59;4930181;29;20242;-73
2023/02/20 08:15:10;;;;;;;233.93;215.40;;;;;;;6.21;80.95;101532.66;4927014;29;20123;-73
2023/02/20 08:17:38;;;;;;;232.50;214.38;;;;;;;6.20;80.97;101517.72;4926953;29;20043;-72
2023/02/20 08:20:04;;;;;;;220.10;201.07;;;;;;;6.25;80.55;101514.41;4926811;29;20039;-72
2023/02/20 08:22:30;;;;;;;231.75;213.30;;;;;;;6.22;81.31;101530.81;4929238;29;20036;-73
2023/02/20 08:24:56;;;;;;;220.13;200.88;;;;;;;6.23;81.03;101519.97;4928088;29;20035;-73
2023/02/20 08:27:22;;;;;;;218.90;199.75;;;;;;;6.27;80.91;101534.44;4918596;29;20031;-74
2023/02/20 08:29:47;;;;;;;234.85;216.05;;;;;;;6.31;80.73;101520.69;4928220;29;20553;-74
2023/02/20 08:32:13;;;;;;;233.10;215.00;;;;;;;6.29;81.04;101518.25;4943754;28;20040;-73
2023/02/20 08:34:39;;;;;;;240.98;222.13;;;;;;;6.25;81.86;101517.88;4925652;29;20036;-72
2023/02/20 08:37:05;;;;;;;221.05;201.98;;;;;;;6.33;81.07;101524.75;4927363;29;20024;-72
2023/02/20 08:39:31;;;;;;;236.57;217.20;;;;;;;6.36;81.07;101518.16;4908138;29;20389;-72
2023/02/20 08:41:57;;;;;;;222.93;203.30;;;;;;;6.34;81.57;101501.63;4926925;29;20079;-72
2023/02/20 08:44:22;;;;;;;223.15;203.57;;;;;;;6.37;81.49;101503.81;4927411;29;20043;-71
2023/02/20 08:46:49;;;;;;;263.77;241.20;;;;;;;6.39;81.46;101491.13;4910841;29;20039;-73
2023/02/20 08:49:17;;;;;;;243.98;223.43;;;;;;;6.38;81.89;101489.50;4909510;29;20522;-73
2023/02/20 08:51:47;;;;;;;254.80;232.88;;;;;;;6.38;81.78;101489.50;4932359;29;20047;-73
2023/02/20 08:54:14;;;;;;;252.32;230.55;;;;;;;6.43;81.63;101487.78;4926503;29;20039;-72
2023/02/20 08:56:43;;;;;;;232.73;210.77;;;;;;;6.47;81.76;101496.13;4927528;29;20123;-73
2023/02/20 08:59:09;;;;;;;270.05;246.23;;;;;;;6.45;82.32;101495.56;4925635;29;20031;-73
2023/02/20 09:01:35;;;;;;;220.95;201.23;;;;;;;6.48;82.00;101487.13;4941469;28;20040;-72
2023/02/20 09:04:01;;;;;;;332.02;302.27;;;;;;;6.55;82.46;101488.66;4942709;28;20046;-74
2023/02/20 09:06:28;;;;;;;245.38;224.38;;;;;;;6.67;82.32;101478.06;4942784;28;20051;-75
2023/02/20 09:08:54;;;;;;;235.15;213.93;;;;;;;6.68;82.53;101477.03;4929288;29;20042;-74
2023/02/20 09:11:20;;;;;;;243.32;220.23;;;;;;;6.66;82.74;101465.81;4942814;29;20044;-73
2023/02/20 09:13:48;;;;;;;228.45;207.40;;;;;;;6.63;83.40;101470.75;4926103;29;20055;-73
2023/02/20 09:16:17;;;;;;;238.95;218.18;;;;;;;6.58;83.95;101455.47;4944324;28;20095;-73
2023/02/20 09:18:44;;;;;;;240.48;219.88;;;;;;;6.53;84.52;101455.34;4931379;29;20470;-72
2023/02/20 09:21:12;;;;;;;246.85;224.70;;;;;;;6.55;84.50;101458.56;4930542;29;20473;-74
2023/02/20 09:23:38;;;;;;;247.82;226.45;;;;;;;6.53;85.12;101450.00;4917868;29;20035;-73
2023/02/20 09:26:04;;;;;;;246.15;225.10;;;;;;;6.47;85.62;101437.59;4930732;29;20054;-72
2023/02/20 09:28:30;;;;;;;229.73;208.25;;;;;;;6.54;85.89;101428.50;4920228;29;20771;-72
2023/02/20 09:30:56;;;;;;;240.07;219.75;;;;;;;6.53;86.26;101436.69;4931990;28;20039;-72
2023/02/20 09:33:22;;;;;;;237.48;216.88;;;;;;;6.62;85.93;101442.50;4932120;29;21075;-73
2023/02/20 09:35:50;;;;;;;300.17;276.23;;;;;;;6.65;86.19;101447.41;4928763;29;20043;-71
2023/02/20 09:38:17;;;;;;;252.13;231.27;;;;;;;6.70;86.35;101450.97;4931736;29;20106;-72
2023/02/20 09:40:48;;;;;;;239.32;219.13;;;;;;;6.64;86.31;101449.25;4944973;28;20043;-71
2023/02/20 09:43:21;;;;;;;221.82;201.32;;;;;;;6.65;86.38;101447.41;4943012;28;20094;-72
2023/02/20 09:45:58;;;;;;;245.32;224.00;;;;;;;6.61;86.89;101436.38;4946746;28;20043;-74
2023/02/20 09:48:47;;;;;;;229.73;207.90;;;;;;;6.57;87.06;101425.38;4938693;29;20273;-76
2023/02/20 09:51:16;;;;;;;238.27;215.40;;;;;;;6.57;86.92;101417.41;4930065;29;20175;-72
2023/02/20 09:53:55;;;;;;;229.13;207.40;;;;;;;6.59;87.06;101422.50;4930362;29;20532;-73
2023/02/20 09:56:26;;;;;;;240.65;219.50;;;;;;;6.59;87.31;101432.34;4937123;29;20040;-72
2023/02/20 09:58:59;;;;;;;241.93;221.48;;;;;;;6.67;86.21;101429.34;4926611;29;20050;-72
2023/02/20 10:01:26;;;;;;;227.02;206.23;;;;;;;6.68;86.70;101420.31;4944479;28;20039;-72
2023/02/20 10:04:05;;;;;;;245.13;223.77;;;;;;;6.75;85.97;101399.72;4928273;29;20095;-72
2023/02/20 10:06:33;;;;;;;242.82;221.77;;;;;;;6.81;85.75;101401.50;4929921;29;20041;-73
2023/02/20 10:09:01;;;;;;;230.23;209.02;;;;;;;6.83;85.89;101412.72;4929908;29;20045;-72
2023/02/20 10:11:56;;;;;;;222.40;202.13;;;;;;;6.88;85.60;101412.03;4930578;29;20511;-72
2023/02/20 10:14:50;;;;;;;238.85;218.10;;;;;;;6.86;85.83;101406.94;4927785;29;20599;-72
2023/02/20 10:17:29;;;;;;;240.32;218.43;;;;;;;6.89;85.80;101411.00;4929508;29;20040;-72
2023/02/20 10:20:12;;;;;;;686.53;629.20;;;;;;;6.93;85.82;101415.66;4945750;29;20050;-72
2023/02/20 10:23:06;;;;;;;820.30;755.80;;;;;;;6.96;85.56;101406.38;4929255;29;20035;-72
2023/02/20 10:25:41;;;;;;;231.15;209.30;;;;;;;7.03;85.11;101401.75;4931129;29;20056;-73
2023/02/20 10:28:17;;;;;;;232.52;212.90;;;;;;;7.07;84.64;101416.25;4943560;28;20058;-72
2023/02/20 10:30:56;;;;;;;230.30;211.20;;;;;;;7.10;85.03;101405.94;4927947;29;20039;-73
2023/02/20 10:33:35;;;;;;;218.10;198.43;;;;;;;7.19;84.88;101417.06;4911925;29;20192;-73
2023/02/20 10:36:29;;;;;;;233.45;213.88;;;;;;;7.25;84.79;101407.34;4927608;29;20131;-72
2023/02/20 10:39:04;;;;;;;229.65;210.43;;;;;;;7.26;84.27;101388.47;4927020;29;20063;-73
2023/02/20 10:41:33;;;;;;;213.65;194.75;;;;;;;7.30;83.93;101392.28;4930809;29;20047;-72
2023/02/20 10:44:09;;;;;;;229.98;211.13;;;;;;;7.42;83.21;101394.94;4945402;28;20044;-73
2023/02/20 10:46:48;;;;;;;225.73;207.27;;;;;;;7.38;83.80;101389.28;4928614;28;22555;-72
2023/02/20 10:49:19;;;;;;;213.00;193.38;;;;;;;7.46;83.84;101395.31;4944482;28;20047;-72
2023/02/20 10:51:50;;;;;;;223.00;204.93;;;;;;;7.53;83.33;101383.47;4927955;29;20072;-73
2023/02/20 10:54:23;;;;;;;221.15;203.55;;;;;;;7.59;83.07;101374.56;4910986;29;20266;-71
2023/02/20 10:56:54;;;;;;;206.90;188.57;;;;;;;7.66;82.56;101393.09;4924699;29;20036;-72
2023/02/20 10:59:38;;;;;;;216.93;199.55;;;;;;;7.70;82.71;101399.56;4943814;28;20047;-72
2023/02/20 11:02:12;;;;;;;202.32;184.18;;;;;;;7.77;82.20;101389.56;4931266;29;20553;-72
2023/02/20 11:04:41;;;;;;;211.75;195.18;;;;;;;7.80;82.42;101397.13;4927501;29;20499;-71
2023/02/20 11:07:12;;;;;;;197.82;180.63;;;;;;;7.80;82.16;101394.44;4942664;28;20047;-72
2023/02/20 11:09:40;;;;;;;201.90;186.10;;;;;;;7.86;82.08;101390.84;4929905;29;20037;-74
2023/02/20 11:12:06;;;;;;;191.13;175.05;;;;;;;7.88;81.92;101388.75;4927860;29;20556;-73
2023/02/20 11:14:42;;;;;;;191.82;175.95;;;;;;;7.90;81.80;101380.50;4915528;29;20043;-72
2023/02/20 11:17:13;;;;;;;194.38;178.45;;;;;;;8.03;81.58;101374.09;4942928;28;20890;-71
2023/02/20 11:19:52;;;;;;;186.23;171.05;;;;;;;8.05;81.64;101388.81;4927963;29;20118;-71
2023/02/20 11:22:38;;;;;;;200.13;184.90;;;;;;;8.01;81.41;101392.19;4909965;29;20124;-72
2023/02/20 11:25:16;;;;;;;192.82;178.18;;;;;;;8.04;81.77;101389.84;4927836;29;20056;-71
2023/02/20 11:27:45;;;;;;;198.27;183.38;;;;;;;8.13;80.99;101391.13;4932278;29;20075;-72
2023/02/20 11:30:27;;;;;;;196.05;181.50;;;;;;;8.13;81.60;101406.31;4912407;29;20036;-71
2023/02/20 11:33:14;;;;;;;196.10;181.48;;;;;;;8.11;81.58;101387.03;4934933;29;20039;-72